createdAt,value
2023-03-06T00:01:29.916Z,24.05
2023-03-06T00:03:58.725Z,26.77
2023-03-06T00:06:27.708Z,25.92
2023-03-06T00:08:56.633Z,25.65
2023-03-06T00:11:25.431Z,29.75
2023-03-06T00:13:54.255Z,27.75
2023-03-06T00:16:25.025Z,23.13
2023-03-06T00:18:53.921Z,26.00
2023-03-06T00:21:22.924Z,38.83
2023-03-06T00:23:51.731Z,33.97
2023-03-06T00:26:20.579Z,47.28
2023-03-06T00:28:49.411Z,46.95
2023-03-06T00:31:19.008Z,62.17
2023-03-06T00:33:49.566Z,42.10
2023-03-06T00:36:19.652Z,32.88
2023-03-06T00:38:48.508Z,33.90
2023-03-06T00:41:17.316Z,28.90
2023-03-06T00:43:46.107Z,35.47
2023-03-06T00:46:14.960Z,40.60
2023-03-06T00:48:45.078Z,26.33
2023-03-06T00:51:16.696Z,34.88
2023-03-06T00:53:45.564Z,25.70
2023-03-06T00:56:14.401Z,33.65
2023-03-06T00:58:43.678Z,32.90
2023-03-06T01:01:12.951Z,30.98
2023-03-06T01:03:41.990Z,36.70
2023-03-06T01:06:10.837Z,40.53
2023-03-06T01:08:41.015Z,38.33
2023-03-06T01:11:10.087Z,44.33
2023-03-06T01:13:38.985Z,38.90
2023-03-06T01:16:10.721Z,38.88
2023-03-06T01:18:39.780Z,42.55
2023-03-06T01:21:09.567Z,41.65
2023-03-06T01:23:38.499Z,46.17
2023-03-06T01:26:09.319Z,52.00
2023-03-06T01:28:39.239Z,28.13
2023-03-06T01:31:10.318Z,29.88
2023-03-06T01:33:39.611Z,29.15
2023-03-06T01:36:11.862Z,29.15
2023-03-06T01:38:41.193Z,36.92
2023-03-06T01:41:15.745Z,35.05
2023-03-06T01:43:46.439Z,30.13
2023-03-06T01:46:26.342Z,37.15
2023-03-06T01:48:57.705Z,32.45
2023-03-06T01:51:31.342Z,38.53
2023-03-06T01:54:03.290Z,40.25
2023-03-06T01:56:33.517Z,39.25
2023-03-06T01:59:03.326Z,35.30
2023-03-06T02:01:34.239Z,31.40
2023-03-06T02:04:03.808Z,27.70
2023-03-06T02:06:34.792Z,31.20
2023-03-06T02:09:06.760Z,36.47
2023-03-06T02:11:37.504Z,28.50
2023-03-06T02:14:06.585Z,26.88
2023-03-06T02:16:35.782Z,22.38
2023-03-06T02:19:08.613Z,25.00
2023-03-06T02:21:39.120Z,31.45
2023-03-06T02:24:23.390Z,25.33
2023-03-06T02:26:54.995Z,29.45
2023-03-06T02:29:27.919Z,37.38
2023-03-06T02:31:59.536Z,36.80
2023-03-06T02:34:53.071Z,38.35
2023-03-06T02:37:23.395Z,31.60
2023-03-06T02:39:59.655Z,37.08
2023-03-06T02:42:30.227Z,34.08
2023-03-06T02:45:02.272Z,48.95
2023-03-06T02:47:31.268Z,60.95
2023-03-06T02:50:00.118Z,50.22
2023-03-06T02:52:29.748Z,55.28
2023-03-06T02:54:58.590Z,43.15
2023-03-06T02:57:27.517Z,41.90
2023-03-06T02:59:59.254Z,38.15
2023-03-06T03:02:28.337Z,38.63
2023-03-06T03:04:57.277Z,36.60
2023-03-06T03:07:26.859Z,37.05
2023-03-06T03:09:55.733Z,50.92
2023-03-06T03:12:25.285Z,37.65
2023-03-06T03:14:54.348Z,40.88
2023-03-06T03:17:24.918Z,34.42
2023-03-06T03:19:53.781Z,28.48
2023-03-06T03:22:23.172Z,44.70
2023-03-06T03:24:52.304Z,42.75
2023-03-06T03:27:21.391Z,37.60
2023-03-06T03:29:50.327Z,40.53
2023-03-06T03:32:19.213Z,41.00
2023-03-06T03:34:49.722Z,39.30
2023-03-06T03:37:20.348Z,49.45
2023-03-06T03:39:49.640Z,42.55
2023-03-06T03:42:18.750Z,32.08
2023-03-06T03:44:47.793Z,33.95
2023-03-06T03:47:19.397Z,28.92
2023-03-06T03:49:49.722Z,39.90
2023-03-06T03:52:20.505Z,36.10
2023-03-06T03:54:49.331Z,33.38
2023-03-06T03:57:18.331Z,32.60
2023-03-06T03:59:52.263Z,46.53
2023-03-06T04:02:41.032Z,38.05
2023-03-06T04:05:20.378Z,33.00
2023-03-06T04:07:50.500Z,41.17
2023-03-06T04:10:19.482Z,34.25
2023-03-06T04:12:48.830Z,35.20
2023-03-06T04:15:17.850Z,31.88
2023-03-06T04:17:48.703Z,26.80
2023-03-06T04:20:24.194Z,32.67
2023-03-06T04:22:54.240Z,38.85
2023-03-06T04:25:23.872Z,34.45
2023-03-06T04:27:53.034Z,68.35
2023-03-06T04:30:22.681Z,47.15
2023-03-06T04:32:51.989Z,32.13
2023-03-06T04:35:21.060Z,29.50
2023-03-06T04:38:00.711Z,45.33
2023-03-06T04:40:34.272Z,51.42
2023-03-06T04:43:06.439Z,42.95
2023-03-06T04:45:36.188Z,32.08
2023-03-06T04:48:05.486Z,32.72
2023-03-06T04:50:34.631Z,34.80
2023-03-06T04:53:05.291Z,28.20
2023-03-06T04:55:34.433Z,33.65
2023-03-06T04:58:03.850Z,32.28
2023-03-06T05:00:32.737Z,28.83
2023-03-06T05:03:02.558Z,31.90
2023-03-06T05:05:31.792Z,26.95
2023-03-06T05:08:00.809Z,17.13
2023-03-06T05:10:31.061Z,18.92
2023-03-06T05:12:59.896Z,21.40
2023-03-06T05:15:29.544Z,21.98
2023-03-06T05:17:58.376Z,18.45
2023-03-06T05:20:28.539Z,18.05
2023-03-06T05:22:57.403Z,21.38
2023-03-06T05:25:26.318Z,22.23
2023-03-06T05:27:56.535Z,21.58
2023-03-06T05:30:25.569Z,24.48
2023-03-06T05:32:54.465Z,23.98
2023-03-06T05:35:24.510Z,26.90
2023-03-06T05:37:53.469Z,29.80
2023-03-06T05:40:22.755Z,33.25
2023-03-06T05:42:51.595Z,31.92
2023-03-06T05:45:21.870Z,22.02
2023-03-06T05:47:50.780Z,26.15
2023-03-06T05:50:19.906Z,33.13
2023-03-06T05:52:48.771Z,27.15
2023-03-06T05:55:19.652Z,18.92
2023-03-06T05:57:48.882Z,23.02
2023-03-06T06:00:19.401Z,117.75
2023-03-06T06:02:49.707Z,21.33
2023-03-06T06:05:18.695Z,14.52
2023-03-06T06:07:47.597Z,13.90
2023-03-06T06:10:17.710Z,18.02
2023-03-06T06:12:46.491Z,12.52
2023-03-06T06:15:15.506Z,11.73
2023-03-06T06:17:44.302Z,18.25
2023-03-06T06:20:17.309Z,17.80
2023-03-06T06:22:46.260Z,15.57
2023-03-06T06:25:15.394Z,23.73
2023-03-06T06:27:44.634Z,16.83
2023-03-06T06:30:16.341Z,21.88
2023-03-06T06:32:45.146Z,22.05
2023-03-06T06:35:15.513Z,25.88
2023-03-06T06:37:44.312Z,24.33
2023-03-06T06:40:13.775Z,18.63
2023-03-06T06:42:42.956Z,14.63
2023-03-06T06:45:12.685Z,17.52
2023-03-06T06:47:42.180Z,11.85
2023-03-06T06:50:13.939Z,18.65
2023-03-06T06:52:44.243Z,20.98
2023-03-06T06:55:13.681Z,17.33
2023-03-06T06:57:43.300Z,15.70
2023-03-06T07:00:15.398Z,13.05
2023-03-06T07:02:44.228Z,16.13
2023-03-06T07:05:13.068Z,16.75
2023-03-06T07:07:41.974Z,16.15
2023-03-06T07:10:16.292Z,23.63
2023-03-06T07:12:45.465Z,16.40
2023-03-06T07:15:15.233Z,17.33
2023-03-06T07:17:44.175Z,16.63
2023-03-06T07:20:13.199Z,18.38
2023-03-06T07:22:50.944Z,19.10
2023-03-06T07:25:22.452Z,14.68
2023-03-06T07:27:54.138Z,14.10
2023-03-06T07:30:24.420Z,14.38
2023-03-06T07:32:56.894Z,19.10
2023-03-06T07:35:26.591Z,19.00
2023-03-06T07:37:55.509Z,19.90
2023-03-06T07:40:26.494Z,26.90
2023-03-06T07:43:06.074Z,16.92
2023-03-06T07:45:47.000Z,13.55
2023-03-06T07:48:16.062Z,16.60
2023-03-06T07:50:45.179Z,12.55
2023-03-06T07:53:14.383Z,19.20
2023-03-06T07:55:44.622Z,12.57
2023-03-06T07:58:13.507Z,17.02
2023-03-06T08:00:42.385Z,22.30
2023-03-06T08:03:12.441Z,11.90
2023-03-06T08:05:41.468Z,17.50
2023-03-06T08:08:10.552Z,11.25
2023-03-06T08:10:39.326Z,16.90
2023-03-06T08:13:09.509Z,12.05
2023-03-06T08:15:38.340Z,11.50
2023-03-06T08:18:07.263Z,21.60
2023-03-06T08:20:36.140Z,19.42
2023-03-06T08:23:05.015Z,12.48
2023-03-06T08:25:33.871Z,12.10
2023-03-06T08:28:03.208Z,14.38
2023-03-06T08:30:33.499Z,17.63
2023-03-06T08:33:02.505Z,29.17
2023-03-06T08:35:31.367Z,13.63
2023-03-06T08:38:00.172Z,13.23
2023-03-06T08:40:30.551Z,18.88
2023-03-06T08:42:59.389Z,12.02
2023-03-06T08:45:28.276Z,14.63
2023-03-06T08:47:58.533Z,9.82
2023-03-06T08:50:27.417Z,13.25
2023-03-06T08:52:56.253Z,11.60
2023-03-06T08:55:25.058Z,10.95
2023-03-06T08:57:53.855Z,10.48
2023-03-06T09:00:22.997Z,10.93
2023-03-06T09:02:51.947Z,10.05
2023-03-06T09:05:22.351Z,15.68
2023-03-06T09:07:51.194Z,13.02
2023-03-06T09:10:22.056Z,14.38
2023-03-06T09:12:54.426Z,11.80
2023-03-06T09:15:24.948Z,12.85
2023-03-06T09:17:54.412Z,11.95
2023-03-06T09:20:24.663Z,12.55
2023-03-06T09:22:53.547Z,12.30
2023-03-06T09:25:23.360Z,13.75
2023-03-06T09:28:08.764Z,11.15
2023-03-06T09:30:41.989Z,12.55
2023-03-06T09:33:10.911Z,11.02
2023-03-06T09:35:48.495Z,11.05
2023-03-06T09:38:17.385Z,11.63
2023-03-06T09:41:00.752Z,13.10
2023-03-06T09:43:33.116Z,12.00
2023-03-06T09:46:04.049Z,12.18
2023-03-06T09:48:41.752Z,14.70
2023-03-06T09:51:16.429Z,14.70
2023-03-06T09:53:57.402Z,14.05
2023-03-06T09:56:31.150Z,15.40
2023-03-06T09:59:06.670Z,13.93
2023-03-06T10:01:41.211Z,8.23
2023-03-06T10:04:19.686Z,14.02
2023-03-06T10:06:51.757Z,7.97
2023-03-06T10:09:25.809Z,13.23
2023-03-06T10:11:58.150Z,15.27
2023-03-06T10:14:32.866Z,9.00
2023-03-06T10:17:02.442Z,8.02
2023-03-06T10:19:34.743Z,7.32
2023-03-06T10:22:12.000Z,14.55
2023-03-06T10:24:50.155Z,6.90
2023-03-06T10:27:35.737Z,7.25
2023-03-06T10:30:22.112Z,5.85
2023-03-06T10:32:57.539Z,7.82
2023-03-06T10:35:33.826Z,9.32
2023-03-06T10:38:21.079Z,7.50
2023-03-06T10:41:05.015Z,10.02
2023-03-06T10:43:36.268Z,8.20
2023-03-06T10:46:07.526Z,9.52
2023-03-06T10:48:40.910Z,7.43
2023-03-06T10:51:18.928Z,7.60
2023-03-06T10:53:55.085Z,3.72
2023-03-06T10:56:32.894Z,5.70
2023-03-06T10:59:09.981Z,7.25
2023-03-06T11:01:40.123Z,6.28
2023-03-06T11:04:24.951Z,11.05
2023-03-06T11:07:08.145Z,6.37
2023-03-06T11:09:38.603Z,8.52
2023-03-06T11:12:23.978Z,7.13
2023-03-06T11:15:18.821Z,6.55
2023-03-06T11:17:54.284Z,8.70
2023-03-06T11:20:26.746Z,8.77
2023-03-06T11:23:00.782Z,21.42
2023-03-06T11:25:36.020Z,6.43
2023-03-06T11:28:09.447Z,32.87
2023-03-06T11:30:43.509Z,6.90
2023-03-06T11:33:20.365Z,6.85
2023-03-06T11:35:57.969Z,7.47
2023-03-06T11:38:36.556Z,4.60
2023-03-06T11:41:14.994Z,8.05
2023-03-06T11:43:52.162Z,8.60
2023-03-06T11:46:25.687Z,7.57
2023-03-06T11:48:59.402Z,6.13
2023-03-06T11:51:32.599Z,7.55
2023-03-06T11:54:03.191Z,8.40
2023-03-06T11:56:42.554Z,3.60
2023-03-06T11:59:47.016Z,6.25
2023-03-06T12:02:39.357Z,8.35
2023-03-06T12:05:37.314Z,7.07
2023-03-06T12:08:41.363Z,6.60
2023-03-06T12:11:18.774Z,9.65
2023-03-06T12:14:05.981Z,9.93
2023-03-06T12:16:59.528Z,5.85
2023-03-06T12:19:41.849Z,5.57
2023-03-06T12:22:22.629Z,5.50
2023-03-06T12:25:03.204Z,9.77
2023-03-06T12:27:43.380Z,5.15
2023-03-06T12:30:37.720Z,7.47
2023-03-06T12:33:17.407Z,9.15
2023-03-06T12:36:00.959Z,7.60
2023-03-06T12:38:51.983Z,5.88
2023-03-06T12:41:29.861Z,4.88
2023-03-06T12:44:25.360Z,5.68
2023-03-06T12:46:59.225Z,5.85
2023-03-06T12:49:32.842Z,7.38
2023-03-06T12:52:03.445Z,4.25
2023-03-06T12:54:37.415Z,6.25
2023-03-06T12:57:08.733Z,6.22
2023-03-06T12:59:40.230Z,5.45
2023-03-06T13:02:33.066Z,5.88
2023-03-06T13:05:23.433Z,25.15
2023-03-06T13:08:03.830Z,7.43
2023-03-06T13:10:35.262Z,4.40
2023-03-06T13:13:05.394Z,8.90
2023-03-06T13:15:39.819Z,7.05
2023-03-06T13:18:51.046Z,3.55
2023-03-06T13:21:46.086Z,4.47
2023-03-06T13:24:21.219Z,7.20
2023-03-06T13:26:57.029Z,6.88
2023-03-06T13:29:52.334Z,6.50
2023-03-06T13:32:31.161Z,5.60
2023-03-06T13:35:02.032Z,6.57
2023-03-06T13:37:50.748Z,6.82
2023-03-06T13:40:32.017Z,4.85
2023-03-06T13:43:13.337Z,6.80
2023-03-06T13:45:43.302Z,6.13
2023-03-06T13:48:43.054Z,5.63
2023-03-06T13:51:25.729Z,11.40
2023-03-06T13:54:35.230Z,7.22
2023-03-06T13:57:19.952Z,4.47
2023-03-06T14:00:10.352Z,4.83
2023-03-06T14:03:27.868Z,6.15
2023-03-06T14:05:56.833Z,5.32
2023-03-06T14:08:30.313Z,5.95
2023-03-06T14:11:05.238Z,4.70
2023-03-06T14:13:47.090Z,6.95
2023-03-06T14:16:22.125Z,4.82
2023-03-06T14:18:52.569Z,4.25
2023-03-06T14:21:30.906Z,8.35
2023-03-06T14:24:03.403Z,5.78
2023-03-06T14:26:35.278Z,6.50
2023-03-06T14:29:05.017Z,10.75
2023-03-06T14:31:38.329Z,5.18
2023-03-06T14:34:10.212Z,10.73
2023-03-06T14:36:46.293Z,6.75
2023-03-06T14:39:21.322Z,4.45
2023-03-06T14:41:50.413Z,6.20
2023-03-06T14:44:21.787Z,7.38
2023-03-06T14:46:52.518Z,10.55
2023-03-06T14:49:22.870Z,11.43
2023-03-06T14:51:54.278Z,10.90
2023-03-06T14:54:28.695Z,12.63
2023-03-06T14:57:03.261Z,13.07
2023-03-06T14:59:38.251Z,4.82
2023-03-06T15:02:12.577Z,8.40
2023-03-06T15:04:45.457Z,5.50
2023-03-06T15:07:18.962Z,4.85
2023-03-06T15:09:50.959Z,16.13
2023-03-06T15:12:38.722Z,14.70
2023-03-06T15:15:30.069Z,10.38
2023-03-06T15:17:59.052Z,9.57
2023-03-06T15:20:43.843Z,10.98
2023-03-06T15:23:23.060Z,7.70
2023-03-06T15:25:56.348Z,8.60
2023-03-06T15:28:31.295Z,9.55
2023-03-06T15:31:21.315Z,9.15
2023-03-06T15:34:18.723Z,7.47
2023-03-06T15:36:50.035Z,9.40
2023-03-06T15:39:38.319Z,15.50
2023-03-06T15:42:28.096Z,22.25
2023-03-06T15:45:03.075Z,7.57
2023-03-06T15:47:32.762Z,5.88
2023-03-06T15:50:03.282Z,6.53
2023-03-06T15:52:32.088Z,6.07
2023-03-06T15:55:00.914Z,10.88
2023-03-06T15:57:32.199Z,6.25
2023-03-06T16:00:02.161Z,5.65
2023-03-06T16:02:40.398Z,12.45
2023-03-06T16:05:16.869Z,13.00
2023-03-06T16:07:46.764Z,10.07
2023-03-06T16:10:17.590Z,14.65
2023-03-06T16:12:50.537Z,13.23
2023-03-06T16:15:21.817Z,11.40
2023-03-06T16:17:50.803Z,13.50
2023-03-06T16:20:21.690Z,9.05
2023-03-06T16:22:51.191Z,12.63
2023-03-06T16:25:22.682Z,14.90
2023-03-06T16:27:56.847Z,10.10
2023-03-06T16:30:27.562Z,14.10
2023-03-06T16:32:56.427Z,15.40
2023-03-06T16:35:25.596Z,17.80
2023-03-06T16:37:54.746Z,11.77
2023-03-06T16:40:25.615Z,12.10
2023-03-06T16:42:56.627Z,22.63
2023-03-06T16:45:25.988Z,18.55
2023-03-06T16:47:54.877Z,24.95
2023-03-06T16:50:26.366Z,30.80
2023-03-06T16:52:57.078Z,21.13
2023-03-06T16:55:27.304Z,11.52
2023-03-06T16:57:57.758Z,14.63
2023-03-06T17:00:31.127Z,18.27
2023-03-06T17:03:00.765Z,17.33
2023-03-06T17:05:33.136Z,14.57
2023-03-06T17:08:02.213Z,14.32
2023-03-06T17:10:31.200Z,17.75
2023-03-06T17:13:02.119Z,16.70
2023-03-06T17:15:30.993Z,18.15
2023-03-06T17:17:59.867Z,17.88
2023-03-06T17:20:29.615Z,15.10
2023-03-06T17:22:58.448Z,24.35
2023-03-06T17:25:27.312Z,29.60
2023-03-06T17:27:56.112Z,42.63
2023-03-06T17:30:26.285Z,58.33
2023-03-06T17:32:55.107Z,56.92
2023-03-06T17:35:23.940Z,53.15
2023-03-06T17:37:52.832Z,48.53
2023-03-06T17:40:21.746Z,28.48
2023-03-06T17:42:51.375Z,20.10
2023-03-06T17:45:22.465Z,11.13
2023-03-06T17:47:55.607Z,16.60
2023-03-06T17:50:24.453Z,13.82
2023-03-06T17:52:53.301Z,13.13
2023-03-06T17:55:22.104Z,10.23
2023-03-06T17:57:52.896Z,10.85
2023-03-06T18:00:23.028Z,93.43
2023-03-06T18:02:52.278Z,79.53
2023-03-06T18:05:22.520Z,88.93
2023-03-06T18:07:51.300Z,74.15
2023-03-06T18:10:20.246Z,56.15
2023-03-06T18:12:49.122Z,45.42
2023-03-06T18:15:18.125Z,44.45
2023-03-06T18:17:47.295Z,37.50
2023-03-06T18:20:16.270Z,32.50
2023-03-06T18:22:46.485Z,31.85
2023-03-06T18:25:15.327Z,36.38
2023-03-06T18:27:44.287Z,42.60
2023-03-06T18:30:14.571Z,72.05
2023-03-06T18:32:43.505Z,63.80
2023-03-06T18:35:12.402Z,59.75
2023-03-06T18:37:41.216Z,59.97
2023-03-06T18:40:13.296Z,43.28
2023-03-06T18:42:42.169Z,63.08
2023-03-06T18:45:12.875Z,62.00
2023-03-06T18:47:42.018Z,52.20
2023-03-06T18:50:16.466Z,61.50
2023-03-06T18:52:45.590Z,92.90
2023-03-06T18:55:15.894Z,86.70
2023-03-06T18:57:44.730Z,98.80
2023-03-06T19:00:14.319Z,87.80
2023-03-06T19:02:43.104Z,100.88
2023-03-06T19:05:12.011Z,87.05
2023-03-06T19:07:40.895Z,85.53
2023-03-06T19:10:11.076Z,81.82
2023-03-06T19:12:41.259Z,64.00
2023-03-06T19:15:10.781Z,60.63
2023-03-06T19:17:39.638Z,82.35
2023-03-06T19:20:09.698Z,87.68
2023-03-06T19:22:38.480Z,109.10
2023-03-06T19:25:08.458Z,78.45
2023-03-06T19:27:39.167Z,83.32
2023-03-06T19:30:13.677Z,213.27
2023-03-06T19:32:46.771Z,143.52
2023-03-06T19:35:15.634Z,107.05
2023-03-06T19:37:44.419Z,111.28
2023-03-06T19:40:14.221Z,175.82
2023-03-06T19:42:43.229Z,110.05
2023-03-06T19:45:13.755Z,152.93
2023-03-06T19:47:42.603Z,107.40
2023-03-06T19:50:12.503Z,144.88
2023-03-06T19:52:41.346Z,227.95
2023-03-06T19:55:11.484Z,183.00
2023-03-06T19:57:40.317Z,121.65
2023-03-06T20:00:11.228Z,260.08
2023-03-06T20:02:43.917Z,165.05
2023-03-06T20:05:12.816Z,143.30
2023-03-06T20:07:41.601Z,136.63
2023-03-06T20:10:11.900Z,173.15
2023-03-06T20:12:40.779Z,127.57
2023-03-06T20:15:10.731Z,212.43
2023-03-06T20:17:40.542Z,109.95
2023-03-06T20:20:12.723Z,85.05
2023-03-06T20:22:41.716Z,91.32
2023-03-06T20:25:17.222Z,93.35
2023-03-06T20:27:46.142Z,91.88
2023-03-06T20:30:15.604Z,79.28
2023-03-06T20:32:44.541Z,72.53
2023-03-06T20:35:14.829Z,84.70
2023-03-06T20:37:43.699Z,76.80
2023-03-06T20:40:13.646Z,65.80
2023-03-06T20:42:42.576Z,72.82
2023-03-06T20:45:11.962Z,83.28
2023-03-06T20:47:47.340Z,115.97
2023-03-06T20:50:17.942Z,173.88
2023-03-06T20:52:46.854Z,166.65
2023-03-06T20:55:15.789Z,93.72
2023-03-06T20:57:44.676Z,86.07
2023-03-06T21:00:14.286Z,106.68
2023-03-06T21:02:43.146Z,105.38
2023-03-06T21:05:12.255Z,136.45
2023-03-06T21:07:42.607Z,98.10
2023-03-06T21:10:13.428Z,74.47
2023-03-06T21:12:42.455Z,53.85
2023-03-06T21:15:13.008Z,66.13
2023-03-06T21:17:41.952Z,70.47
2023-03-06T21:20:12.184Z,57.97
2023-03-06T21:22:42.499Z,57.38
2023-03-06T21:25:12.828Z,62.33
2023-03-06T21:27:41.796Z,72.15
2023-03-06T21:30:13.374Z,107.18
2023-03-06T21:32:42.585Z,103.50
2023-03-06T21:35:11.499Z,103.07
2023-03-06T21:37:40.452Z,54.03
2023-03-06T21:40:12.848Z,84.47
2023-03-06T21:42:41.727Z,73.13
2023-03-06T21:45:12.084Z,87.93
2023-03-06T21:47:41.069Z,110.00
2023-03-06T21:50:12.293Z,130.98
2023-03-06T21:52:41.484Z,114.07
2023-03-06T21:55:12.026Z,105.65
2023-03-06T21:57:41.242Z,106.35
2023-03-06T22:00:12.909Z,130.35
2023-03-06T22:02:42.319Z,131.23
2023-03-06T22:05:11.423Z,125.47
2023-03-06T22:07:40.814Z,85.50
2023-03-06T22:10:14.397Z,63.15
2023-03-06T22:12:43.249Z,40.72
2023-03-06T22:15:12.472Z,41.40
2023-03-06T22:17:41.708Z,35.65
2023-03-06T22:20:13.161Z,53.33
2023-03-06T22:22:42.373Z,40.80
2023-03-06T22:25:13.125Z,33.38
2023-03-06T22:27:41.945Z,31.88
2023-03-06T22:30:11.979Z,31.83
2023-03-06T22:32:40.983Z,31.20
2023-03-06T22:35:10.630Z,39.65
2023-03-06T22:37:39.484Z,44.97
2023-03-06T22:40:09.463Z,37.10
2023-03-06T22:42:39.678Z,44.53
2023-03-06T22:45:10.320Z,40.60
2023-03-06T22:47:39.382Z,36.45
2023-03-06T22:50:09.081Z,52.25
2023-03-06T22:52:38.031Z,72.10
2023-03-06T22:55:08.065Z,105.63
2023-03-06T22:57:36.893Z,73.57
2023-03-06T23:00:09.105Z,70.40
2023-03-06T23:02:38.695Z,68.70
2023-03-06T23:05:07.777Z,62.03
2023-03-06T23:07:36.654Z,65.88
2023-03-06T23:10:06.917Z,60.97
2023-03-06T23:12:54.254Z,60.50
2023-03-06T23:15:43.177Z,64.65
2023-03-06T23:18:31.408Z,73.28
2023-03-06T23:21:20.583Z,79.95
2023-03-06T23:24:08.577Z,113.63
2023-03-06T23:26:37.468Z,89.03
2023-03-06T23:29:06.322Z,70.30
2023-03-06T23:31:37.450Z,71.63
2023-03-06T23:34:06.350Z,63.83
2023-03-06T23:36:35.220Z,70.07
2023-03-06T23:39:04.274Z,85.00
2023-03-06T23:41:33.221Z,82.10
2023-03-06T23:44:02.087Z,73.50
2023-03-06T23:46:31.294Z,75.90
2023-03-06T23:49:02.088Z,51.67
2023-03-06T23:51:31.000Z,40.53
2023-03-06T23:54:02.097Z,47.67
2023-03-06T23:56:30.879Z,48.63
2023-03-06T23:58:59.705Z,50.00
